createdAt,value
2017-12-04T00:00:56.681Z,1017.08
2017-12-04T00:01:56.661Z,1017.08
2017-12-04T00:02:56.649Z,1017.04
2017-12-04T00:03:56.623Z,1016.99
2017-12-04T00:04:56.600Z,1016.95
2017-12-04T00:05:56.581Z,1016.89
2017-12-04T00:06:56.552Z,1016.92
2017-12-04T00:07:56.535Z,1016.94
2017-12-04T00:08:56.513Z,1016.96
2017-12-04T00:09:56.494Z,1016.92
2017-12-04T00:10:56.472Z,1016.96
2017-12-04T00:11:56.459Z,1016.96
2017-12-04T00:12:56.434Z,1016.98
2017-12-04T00:13:56.422Z,1017.00
2017-12-04T00:14:56.386Z,1017.02
2017-12-04T00:15:56.366Z,1016.99
2017-12-04T00:16:56.354Z,1017.00
2017-12-04T00:17:56.325Z,1017.04
2017-12-04T00:18:56.301Z,1017.11
2017-12-04T00:19:56.282Z,1017.06
2017-12-04T00:20:56.264Z,1017.09
2017-12-04T00:21:56.245Z,1017.12
2017-12-04T00:22:56.234Z,1017.09
2017-12-04T00:23:56.202Z,1017.10
2017-12-04T00:24:56.192Z,1017.10
2017-12-04T00:25:56.458Z,1017.10
2017-12-04T00:26:56.143Z,1017.15
2017-12-04T00:27:56.112Z,1017.10
2017-12-04T00:28:56.094Z,1017.14
2017-12-04T00:29:56.069Z,1017.18
2017-12-04T00:30:56.052Z,1017.15
2017-12-04T00:31:56.027Z,1017.13
2017-12-04T00:32:56.015Z,1017.12
2017-12-04T00:33:55.985Z,1017.11
2017-12-04T00:34:55.973Z,1017.14
2017-12-04T00:35:55.944Z,1017.14
2017-12-04T00:36:55.923Z,1017.12
2017-12-04T00:37:55.900Z,1017.14
2017-12-04T00:38:55.883Z,1017.14
2017-12-04T00:39:55.863Z,1017.12
2017-12-04T00:40:55.836Z,1017.08
2017-12-04T00:41:55.814Z,1017.12
2017-12-04T00:42:55.793Z,1017.11
2017-12-04T00:43:55.774Z,1017.06
2017-12-04T00:44:55.755Z,1017.04
2017-12-04T00:45:55.729Z,1017.03
2017-12-04T00:46:55.717Z,1017.08
2017-12-04T00:47:55.689Z,1017.10
2017-12-04T00:48:55.665Z,1017.07
2017-12-04T00:49:55.654Z,1017.03
2017-12-04T00:50:55.625Z,1017.13
2017-12-04T00:51:55.604Z,1017.11
2017-12-04T00:52:55.585Z,1017.10
2017-12-04T00:53:55.563Z,1017.11
2017-12-04T00:54:55.538Z,1017.10
2017-12-04T00:55:55.521Z,1017.13
2017-12-04T00:56:55.546Z,1017.13
2017-12-04T00:57:55.476Z,1017.10
2017-12-04T00:58:55.461Z,1017.22
2017-12-04T00:59:55.438Z,1017.17
2017-12-04T01:00:55.425Z,1017.12
2017-12-04T01:01:55.391Z,1017.13
2017-12-04T01:02:55.372Z,1017.13
2017-12-04T01:03:55.350Z,1017.14
2017-12-04T01:04:55.366Z,1017.12
2017-12-04T01:05:55.310Z,1017.14
2017-12-04T01:06:55.293Z,1017.12
2017-12-04T01:07:55.265Z,1017.14
2017-12-04T01:08:55.298Z,1017.08
2017-12-04T01:09:55.228Z,1017.12
2017-12-04T01:10:55.204Z,1017.11
2017-12-04T01:11:55.193Z,1017.14
2017-12-04T01:12:55.164Z,1017.16
2017-12-04T01:13:55.144Z,1017.15
2017-12-04T01:14:55.151Z,1017.20
2017-12-04T01:15:55.101Z,1017.23
2017-12-04T01:16:55.143Z,1017.25
2017-12-04T01:17:55.053Z,1017.32
2017-12-04T01:18:55.035Z,1017.30
2017-12-04T01:19:55.015Z,1017.36
2017-12-04T01:20:54.995Z,1017.34
2017-12-04T01:21:54.972Z,1017.35
2017-12-04T01:22:54.955Z,1017.37
2017-12-04T01:23:54.932Z,1017.35
2017-12-04T01:24:54.910Z,1017.36
2017-12-04T01:25:54.883Z,1017.38
2017-12-04T01:26:54.961Z,1017.37
2017-12-04T01:27:54.845Z,1017.37
2017-12-04T01:28:54.915Z,1017.41
2017-12-04T01:29:54.799Z,1017.35
2017-12-04T01:30:54.784Z,1017.26
2017-12-04T01:31:54.763Z,1017.32
2017-12-04T01:32:54.738Z,1017.31
2017-12-04T01:33:54.721Z,1017.28
2017-12-04T01:34:54.704Z,1017.32
2017-12-04T01:35:54.684Z,1017.33
2017-12-04T01:36:54.745Z,1017.34
2017-12-04T01:37:54.636Z,1017.38
2017-12-04T01:38:54.664Z,1017.44
2017-12-04T01:39:54.591Z,1017.48
2017-12-04T01:40:54.581Z,1017.54
2017-12-04T01:41:54.558Z,1017.59
2017-12-04T01:42:54.529Z,1017.59
2017-12-04T01:43:54.515Z,1017.60
2017-12-04T01:44:54.493Z,1017.62
2017-12-04T01:45:54.468Z,1017.62
2017-12-04T01:46:54.443Z,1017.59
2017-12-04T01:47:54.424Z,1017.61
2017-12-04T01:48:54.403Z,1017.64
2017-12-04T01:49:54.381Z,1017.58
2017-12-04T01:50:54.363Z,1017.57
2017-12-04T01:51:54.343Z,1017.55
2017-12-04T01:52:54.320Z,1017.56
2017-12-04T01:53:54.299Z,1017.56
2017-12-04T01:54:54.280Z,1017.52
2017-12-04T01:55:54.265Z,1017.56
2017-12-04T01:56:54.242Z,1017.58
2017-12-04T01:57:54.223Z,1017.55
2017-12-04T01:58:54.206Z,1017.55
2017-12-04T01:59:54.178Z,1017.56
2017-12-04T02:00:54.156Z,1017.59
2017-12-04T02:01:54.133Z,1017.61
2017-12-04T02:02:54.114Z,1017.59
2017-12-04T02:03:54.093Z,1017.58
2017-12-04T02:04:54.074Z,1017.58
2017-12-04T02:05:54.052Z,1017.58
2017-12-04T02:06:54.035Z,1017.56
2017-12-04T02:07:54.026Z,1017.57
2017-12-04T02:08:53.989Z,1017.58
2017-12-04T02:09:53.972Z,1017.52
2017-12-04T02:10:53.950Z,1017.59
2017-12-04T02:11:53.930Z,1017.58
2017-12-04T02:12:53.915Z,1017.57
2017-12-04T02:13:53.889Z,1017.53
2017-12-04T02:14:53.866Z,1017.50
2017-12-04T02:15:53.851Z,1017.46
2017-12-04T02:16:53.825Z,1017.47
2017-12-04T02:17:53.803Z,1017.43
2017-12-04T02:18:53.784Z,1017.44
2017-12-04T02:19:53.766Z,1017.46
2017-12-04T02:20:53.744Z,1017.41
2017-12-04T02:21:53.723Z,1017.44
2017-12-04T02:22:53.704Z,1017.50
2017-12-04T02:23:53.684Z,1017.50
2017-12-04T02:24:53.659Z,1017.50
2017-12-04T02:25:53.642Z,1017.56
2017-12-04T02:26:53.622Z,1017.55
2017-12-04T02:27:53.604Z,1017.50
2017-12-04T02:28:53.582Z,1017.51
2017-12-04T02:29:53.561Z,1017.53
2017-12-04T02:30:53.536Z,1017.52
2017-12-04T02:31:53.521Z,1017.51
2017-12-04T02:32:53.494Z,1017.52
2017-12-04T02:33:53.473Z,1017.51
2017-12-04T02:34:53.452Z,1017.52
2017-12-04T02:35:53.432Z,1017.49
2017-12-04T02:36:53.414Z,1017.55
2017-12-04T02:37:53.392Z,1017.52
2017-12-04T02:38:53.372Z,1017.57
2017-12-04T02:39:53.349Z,1017.57
2017-12-04T02:40:53.330Z,1017.52
2017-12-04T02:41:53.307Z,1017.53
2017-12-04T02:42:53.293Z,1017.56
2017-12-04T02:43:53.269Z,1017.53
2017-12-04T02:44:53.249Z,1017.47
2017-12-04T02:45:53.227Z,1017.48
2017-12-04T02:46:53.209Z,1017.51
2017-12-04T02:47:53.190Z,1017.47
2017-12-04T02:48:53.163Z,1017.49
2017-12-04T02:49:53.145Z,1017.43
2017-12-04T02:50:53.123Z,1017.43
2017-12-04T02:51:53.100Z,1017.43
2017-12-04T02:52:53.080Z,1017.43
2017-12-04T02:53:53.061Z,1017.45
2017-12-04T02:54:53.044Z,1017.41
2017-12-04T02:55:53.025Z,1017.40
2017-12-04T02:56:52.997Z,1017.42
2017-12-04T02:57:52.974Z,1017.49
2017-12-04T02:58:52.959Z,1017.51
2017-12-04T02:59:52.939Z,1017.46
2017-12-04T03:00:52.914Z,1017.50
2017-12-04T03:01:52.896Z,1017.48
2017-12-04T03:02:52.873Z,1017.49
2017-12-04T03:03:52.858Z,1017.49
2017-12-04T03:04:52.833Z,1017.44
2017-12-04T03:05:52.817Z,1017.45
2017-12-04T03:06:52.798Z,1017.49
2017-12-04T03:07:52.769Z,1017.47
2017-12-04T03:08:52.754Z,1017.40
2017-12-04T03:09:52.731Z,1017.45
2017-12-04T03:10:52.705Z,1017.49
2017-12-04T03:11:52.692Z,1017.45
2017-12-04T03:12:52.666Z,1017.41
2017-12-04T03:13:52.648Z,1017.40
2017-12-04T03:14:52.625Z,1017.44
2017-12-04T03:15:52.606Z,1017.38
2017-12-04T03:16:52.580Z,1017.36
2017-12-04T03:17:52.564Z,1017.44
2017-12-04T03:18:52.548Z,1017.40
2017-12-04T03:19:52.516Z,1017.42
2017-12-04T03:20:52.501Z,1017.39
2017-12-04T03:21:52.474Z,1017.42
2017-12-04T03:22:52.463Z,1017.40
2017-12-04T03:23:52.436Z,1017.41
2017-12-04T03:24:52.413Z,1017.46
2017-12-04T03:25:52.390Z,1017.45
2017-12-04T03:26:52.374Z,1017.41
2017-12-04T03:27:52.362Z,1017.49
2017-12-04T03:28:52.335Z,1017.47
2017-12-04T03:29:52.313Z,1017.46
2017-12-04T03:30:52.293Z,1017.46
2017-12-04T03:31:52.269Z,1017.44
2017-12-04T03:32:52.249Z,1017.45
2017-12-04T03:33:52.226Z,1017.43
2017-12-04T03:34:52.204Z,1017.45
2017-12-04T03:35:52.185Z,1017.40
2017-12-04T03:36:52.164Z,1017.41
2017-12-04T03:37:52.145Z,1017.44
2017-12-04T03:38:52.122Z,1017.45
2017-12-04T03:39:52.109Z,1017.47
2017-12-04T03:40:52.081Z,1017.50
2017-12-04T03:41:52.059Z,1017.45
2017-12-04T03:42:52.043Z,1017.49
2017-12-04T03:43:52.075Z,1017.52
2017-12-04T03:44:51.998Z,1017.49
2017-12-04T03:45:51.978Z,1017.46
2017-12-04T03:46:51.953Z,1017.51
2017-12-04T03:47:51.933Z,1017.52
2017-12-04T03:48:51.914Z,1017.51
2017-12-04T03:49:51.894Z,1017.50
2017-12-04T03:50:51.876Z,1017.52
2017-12-04T03:51:51.853Z,1017.51
2017-12-04T03:52:51.842Z,1017.49
2017-12-04T03:53:51.818Z,1017.49
2017-12-04T03:54:51.797Z,1017.49
2017-12-04T03:55:51.773Z,1017.47
2017-12-04T03:56:51.746Z,1017.47
2017-12-04T03:57:51.729Z,1017.53
2017-12-04T03:58:51.707Z,1017.49
2017-12-04T03:59:51.694Z,1017.56
2017-12-04T04:00:51.665Z,1017.57
2017-12-04T04:01:51.645Z,1017.57
2017-12-04T04:02:51.624Z,1017.58
2017-12-04T04:03:51.601Z,1017.60
2017-12-04T04:04:51.585Z,1017.59
2017-12-04T04:05:51.565Z,1017.60
2017-12-04T04:06:51.541Z,1017.58
2017-12-04T04:07:51.522Z,1017.59
2017-12-04T04:08:51.498Z,1017.55
2017-12-04T04:09:51.476Z,1017.57
2017-12-04T04:10:51.459Z,1017.53
2017-12-04T04:11:51.444Z,1017.57
2017-12-04T04:12:51.424Z,1017.63
2017-12-04T04:13:51.396Z,1017.60
2017-12-04T04:14:51.374Z,1017.62
2017-12-04T04:15:51.355Z,1017.60
2017-12-04T04:16:51.335Z,1017.60
2017-12-04T04:17:51.312Z,1017.58
2017-12-04T04:18:51.291Z,1017.59
2017-12-04T04:19:51.270Z,1017.62
2017-12-04T04:20:51.249Z,1017.69
2017-12-04T04:21:51.232Z,1017.62
2017-12-04T04:22:51.210Z,1017.61
2017-12-04T04:23:51.193Z,1017.61
2017-12-04T04:24:51.166Z,1017.60
2017-12-04T04:25:51.153Z,1017.63
2017-12-04T04:26:51.131Z,1017.63
2017-12-04T04:27:51.113Z,1017.61
2017-12-04T04:28:51.085Z,1017.65
2017-12-04T04:29:51.064Z,1017.63
2017-12-04T04:30:51.044Z,1017.63
2017-12-04T04:31:51.024Z,1017.64
2017-12-04T04:32:51.011Z,1017.62
2017-12-04T04:33:50.985Z,1017.62
2017-12-04T04:34:50.964Z,1017.61
2017-12-04T04:35:50.945Z,1017.63
2017-12-04T04:36:50.924Z,1017.60
2017-12-04T04:37:50.903Z,1017.61
2017-12-04T04:38:50.884Z,1017.60
2017-12-04T04:39:50.860Z,1017.65
2017-12-04T04:40:50.838Z,1017.56
2017-12-04T04:41:50.816Z,1017.61
2017-12-04T04:42:50.799Z,1017.61
2017-12-04T04:43:50.783Z,1017.64
2017-12-04T04:44:50.755Z,1017.65
2017-12-04T04:45:50.734Z,1017.70
2017-12-04T04:46:50.713Z,1017.63
2017-12-04T04:47:50.693Z,1017.55
2017-12-04T04:48:50.671Z,1017.51
2017-12-04T04:49:50.654Z,1017.57
2017-12-04T04:50:50.633Z,1017.62
2017-12-04T04:51:50.619Z,1017.66
2017-12-04T04:52:50.604Z,1017.67
2017-12-04T04:53:50.570Z,1017.68
2017-12-04T04:54:50.554Z,1017.68
2017-12-04T04:55:50.530Z,1017.70
2017-12-04T04:56:50.510Z,1017.72
2017-12-04T04:57:50.497Z,1017.73
2017-12-04T04:58:50.469Z,1017.71
2017-12-04T04:59:50.451Z,1017.69
2017-12-04T05:00:50.425Z,1017.70
2017-12-04T05:01:50.402Z,1017.68
2017-12-04T05:02:50.386Z,1017.71
2017-12-04T05:03:50.366Z,1017.69
2017-12-04T05:04:50.346Z,1017.70
2017-12-04T05:05:50.323Z,1017.73
2017-12-04T05:06:50.305Z,1017.72
2017-12-04T05:07:50.283Z,1017.70
2017-12-04T05:08:50.262Z,1017.73
2017-12-04T05:09:50.245Z,1017.67
2017-12-04T05:10:50.226Z,1017.69
2017-12-04T05:11:50.200Z,1017.64
2017-12-04T05:12:50.185Z,1017.68
2017-12-04T05:13:50.167Z,1017.66
2017-12-04T05:14:50.135Z,1017.68
2017-12-04T05:15:50.116Z,1017.73
2017-12-04T05:16:50.094Z,1017.73
2017-12-04T05:17:50.071Z,1017.79
2017-12-04T05:18:50.054Z,1017.78
2017-12-04T05:19:50.034Z,1017.80
2017-12-04T05:20:50.010Z,1017.79
2017-12-04T05:21:49.994Z,1017.78
2017-12-04T05:22:49.972Z,1017.83
2017-12-04T05:23:49.998Z,1017.77
2017-12-04T05:24:49.935Z,1017.82
2017-12-04T05:25:50.010Z,1017.77
2017-12-04T05:26:49.891Z,1017.81
2017-12-04T05:27:49.914Z,1017.79
2017-12-04T05:28:49.846Z,1017.81
2017-12-04T05:29:49.873Z,1017.84
2017-12-04T05:30:49.806Z,1017.84
2017-12-04T05:31:49.785Z,1017.86
2017-12-04T05:32:49.761Z,1017.86
2017-12-04T05:33:49.744Z,1017.88
2017-12-04T05:34:49.784Z,1017.90
2017-12-04T05:35:49.803Z,1017.84
2017-12-04T05:36:49.677Z,1017.86
2017-12-04T05:37:49.715Z,1017.85
2017-12-04T05:38:49.644Z,1017.84
2017-12-04T05:39:49.679Z,1017.86
2017-12-04T05:40:49.598Z,1017.88
2017-12-04T05:41:49.674Z,1017.89
2017-12-04T05:42:49.554Z,1017.88
2017-12-04T05:43:49.585Z,1017.85
2017-12-04T05:44:49.515Z,1017.84
2017-12-04T05:45:49.492Z,1017.85
2017-12-04T05:46:49.472Z,1017.86
2017-12-04T05:47:49.504Z,1017.86
2017-12-04T05:48:49.433Z,1017.87
2017-12-04T05:49:49.415Z,1017.82
2017-12-04T05:50:49.392Z,1017.84
2017-12-04T05:51:49.373Z,1017.81
2017-12-04T05:52:49.354Z,1017.83
2017-12-04T05:53:49.333Z,1017.86
2017-12-04T05:54:49.316Z,1017.85
2017-12-04T05:55:49.505Z,1017.80
2017-12-04T05:56:49.275Z,1017.82
2017-12-04T05:57:49.352Z,1017.84
2017-12-04T05:58:49.236Z,1017.86
2017-12-04T05:59:49.243Z,1017.89
2017-12-04T06:00:49.184Z,1017.87
2017-12-04T06:01:49.175Z,1017.92
2017-12-04T06:02:49.152Z,1017.95
2017-12-04T06:03:49.134Z,1017.95
2017-12-04T06:04:49.117Z,1017.93
2017-12-04T06:05:49.103Z,1018.02
2017-12-04T06:06:49.067Z,1018.11
2017-12-04T06:07:49.054Z,1018.09
2017-12-04T06:08:49.026Z,1018.07
2017-12-04T06:09:49.008Z,1018.10
2017-12-04T06:10:48.987Z,1018.09
2017-12-04T06:11:49.031Z,1018.04
2017-12-04T06:12:48.955Z,1018.01
2017-12-04T06:13:48.928Z,1018.05
2017-12-04T06:14:48.907Z,1018.07
2017-12-04T06:15:48.892Z,1018.09
2017-12-04T06:16:48.868Z,1018.10
2017-12-04T06:17:48.849Z,1018.13
2017-12-04T06:18:48.829Z,1018.12
2017-12-04T06:19:48.808Z,1018.21
2017-12-04T06:20:48.806Z,1018.17
2017-12-04T06:21:48.767Z,1018.16
2017-12-04T06:22:48.745Z,1018.20
2017-12-04T06:23:48.740Z,1018.16
2017-12-04T06:24:48.709Z,1018.20
2017-12-04T06:25:48.689Z,1018.21
2017-12-04T06:26:48.666Z,1018.16
2017-12-04T06:27:48.641Z,1018.22
2017-12-04T06:28:48.628Z,1018.22
2017-12-04T06:29:48.604Z,1018.27
2017-12-04T06:30:48.588Z,1018.20
2017-12-04T06:31:48.560Z,1018.24
2017-12-04T06:32:48.536Z,1018.27
2017-12-04T06:33:48.517Z,1018.26
2017-12-04T06:34:48.498Z,1018.27
2017-12-04T06:35:48.476Z,1018.22
2017-12-04T06:36:48.477Z,1018.21
2017-12-04T06:37:48.433Z,1018.26
2017-12-04T06:38:48.414Z,1018.27
2017-12-04T06:39:48.402Z,1018.24
2017-12-04T06:40:48.369Z,1018.26
2017-12-04T06:41:48.353Z,1018.26
2017-12-04T06:42:48.329Z,1018.32
2017-12-04T06:43:48.305Z,1018.34
2017-12-04T06:44:48.283Z,1018.31
2017-12-04T06:45:48.269Z,1018.33
2017-12-04T06:46:48.243Z,1018.33
2017-12-04T06:47:48.224Z,1018.35
2017-12-04T06:48:48.204Z,1018.39
2017-12-04T06:49:48.183Z,1018.35
2017-12-04T06:50:48.163Z,1018.38
2017-12-04T06:51:48.140Z,1018.41
2017-12-04T06:52:48.125Z,1018.40
2017-12-04T06:53:48.099Z,1018.44
2017-12-04T06:54:48.083Z,1018.46
2017-12-04T06:55:48.062Z,1018.38
2017-12-04T06:56:48.038Z,1018.41
2017-12-04T06:57:48.022Z,1018.45
2017-12-04T06:58:48.005Z,1018.49
2017-12-04T06:59:47.979Z,1018.47
2017-12-04T07:00:47.961Z,1018.49
2017-12-04T07:01:47.940Z,1018.49
2017-12-04T07:02:47.926Z,1018.54
2017-12-04T07:03:47.902Z,1018.54
2017-12-04T07:04:47.876Z,1018.49
2017-12-04T07:05:47.859Z,1018.53
2017-12-04T07:06:47.841Z,1018.54
2017-12-04T07:07:47.815Z,1018.55
2017-12-04T07:08:47.802Z,1018.54
2017-12-04T07:09:47.774Z,1018.59
2017-12-04T07:10:47.761Z,1018.63
2017-12-04T07:11:47.735Z,1018.69
2017-12-04T07:12:47.715Z,1018.67
2017-12-04T07:13:47.693Z,1018.70
2017-12-04T07:14:47.675Z,1018.69
2017-12-04T07:15:47.651Z,1018.68
2017-12-04T07:16:47.632Z,1018.70
2017-12-04T07:17:47.615Z,1018.71
2017-12-04T07:18:47.591Z,1018.74
2017-12-04T07:19:47.588Z,1018.75
2017-12-04T07:20:47.550Z,1018.72
2017-12-04T07:21:47.532Z,1018.71
2017-12-04T07:22:47.513Z,1018.73
2017-12-04T07:23:47.496Z,1018.70
2017-12-04T07:24:47.484Z,1018.74
2017-12-04T07:25:47.454Z,1018.74
2017-12-04T07:26:47.430Z,1018.71
2017-12-04T07:27:47.420Z,1018.70
2017-12-04T07:28:47.391Z,1018.73
2017-12-04T07:29:47.375Z,1018.73
2017-12-04T07:30:47.350Z,1018.78
2017-12-04T07:31:47.332Z,1018.79
2017-12-04T07:32:47.311Z,1018.84
2017-12-04T07:33:47.291Z,1018.82
2017-12-04T07:34:47.269Z,1018.85
2017-12-04T07:35:47.255Z,1018.88
2017-12-04T07:36:47.233Z,1018.90
2017-12-04T07:37:47.217Z,1018.92
2017-12-04T07:38:47.186Z,1018.93
2017-12-04T07:39:47.175Z,1018.93
2017-12-04T07:40:47.147Z,1018.93
2017-12-04T07:41:47.129Z,1018.94
2017-12-04T07:42:47.115Z,1018.95
2017-12-04T07:43:47.096Z,1018.96
2017-12-04T07:44:47.065Z,1018.88
2017-12-04T07:45:47.052Z,1018.91
2017-12-04T07:46:47.024Z,1018.92
2017-12-04T07:47:47.015Z,1018.93
2017-12-04T07:48:46.984Z,1018.97
2017-12-04T07:49:46.960Z,1018.97
2017-12-04T07:50:46.944Z,1018.93
2017-12-04T07:51:46.925Z,1018.86
2017-12-04T07:52:46.904Z,1018.90
2017-12-04T07:53:46.880Z,1018.94
2017-12-04T07:54:46.864Z,1018.92
2017-12-04T07:55:46.845Z,1018.91
2017-12-04T07:56:46.823Z,1018.93
2017-12-04T07:57:46.808Z,1018.86
2017-12-04T07:58:46.782Z,1018.93
2017-12-04T07:59:46.765Z,1018.91
2017-12-04T08:00:46.747Z,1018.91
2017-12-04T08:01:46.720Z,1018.95
2017-12-04T08:02:46.697Z,1018.95
2017-12-04T08:03:46.679Z,1018.93
2017-12-04T08:04:46.664Z,1018.90
2017-12-04T08:05:46.638Z,1018.92
2017-12-04T08:06:46.618Z,1018.94
2017-12-04T08:07:46.598Z,1018.94
2017-12-04T08:08:46.580Z,1019.01
2017-12-04T08:09:46.558Z,1018.98
2017-12-04T08:10:46.544Z,1019.00
2017-12-04T08:11:46.518Z,1019.03
2017-12-04T08:12:46.497Z,1019.00
2017-12-04T08:13:46.474Z,1018.99
2017-12-04T08:14:46.459Z,1019.02
2017-12-04T08:15:46.433Z,1019.02
2017-12-04T08:16:46.426Z,1019.02
2017-12-04T08:17:46.406Z,1019.04
2017-12-04T08:18:46.377Z,1019.06
2017-12-04T08:19:46.361Z,1019.04
2017-12-04T08:20:46.337Z,1019.05
2017-12-04T08:21:46.324Z,1019.08
2017-12-04T08:22:46.298Z,1019.09
2017-12-04T08:23:46.276Z,1019.09
2017-12-04T08:24:46.260Z,1019.11
2017-12-04T08:25:46.234Z,1019.17
2017-12-04T08:26:46.214Z,1019.18
2017-12-04T08:27:46.200Z,1019.18
2017-12-04T08:28:46.175Z,1019.18
2017-12-04T08:29:46.154Z,1019.22
2017-12-04T08:30:46.135Z,1019.21
2017-12-04T08:31:46.116Z,1019.27
2017-12-04T08:32:46.094Z,1019.25
2017-12-04T08:33:46.073Z,1019.30
2017-12-04T08:34:46.055Z,1019.30
2017-12-04T08:35:46.034Z,1019.33
2017-12-04T08:36:46.013Z,1019.32
2017-12-04T08:37:46.007Z,1019.35
2017-12-04T08:38:45.989Z,1019.33
2017-12-04T08:39:45.954Z,1019.40
2017-12-04T08:40:45.950Z,1019.35
2017-12-04T08:41:45.913Z,1019.40
2017-12-04T08:42:45.894Z,1019.40
2017-12-04T08:43:45.875Z,1019.40
2017-12-04T08:44:45.853Z,1019.41
2017-12-04T08:45:45.835Z,1019.43
2017-12-04T08:46:45.817Z,1019.45
2017-12-04T08:47:45.795Z,1019.49
2017-12-04T08:48:45.773Z,1019.53
2017-12-04T08:49:45.764Z,1019.52
2017-12-04T08:50:45.734Z,1019.46
2017-12-04T08:51:45.714Z,1019.51
2017-12-04T08:52:45.697Z,1019.53
2017-12-04T08:53:45.677Z,1019.57
2017-12-04T08:54:45.655Z,1019.58
2017-12-04T08:55:45.634Z,1019.62
2017-12-04T08:56:45.617Z,1019.59
2017-12-04T08:57:45.596Z,1019.69
2017-12-04T08:58:45.575Z,1019.67
2017-12-04T08:59:45.554Z,1019.73
2017-12-04T09:00:45.535Z,1019.73
2017-12-04T09:01:45.520Z,1019.77
2017-12-04T09:02:45.491Z,1019.79
2017-12-04T09:03:45.475Z,1019.85
2017-12-04T09:04:45.456Z,1019.81
2017-12-04T09:05:45.444Z,1019.84
2017-12-04T09:06:45.415Z,1019.87
2017-12-04T09:07:45.404Z,1019.95
2017-12-04T09:08:45.374Z,1019.94
2017-12-04T09:09:45.367Z,1019.97
2017-12-04T09:10:45.335Z,1019.98
2017-12-04T09:11:45.315Z,1019.97
2017-12-04T09:12:45.294Z,1020.02
2017-12-04T09:13:45.275Z,1019.97
2017-12-04T09:14:45.261Z,1020.03
2017-12-04T09:15:45.234Z,1020.06
2017-12-04T09:16:45.215Z,1020.10
2017-12-04T09:17:45.193Z,1020.11
2017-12-04T09:18:45.172Z,1020.12
2017-12-04T09:19:45.156Z,1020.10
2017-12-04T09:20:45.135Z,1020.16
2017-12-04T09:21:45.116Z,1020.16
2017-12-04T09:22:45.094Z,1020.18
2017-12-04T09:23:45.088Z,1020.18
2017-12-04T09:24:45.054Z,1020.22
2017-12-04T09:25:45.035Z,1020.19
2017-12-04T09:26:45.016Z,1020.23
2017-12-04T09:27:44.995Z,1020.27
2017-12-04T09:28:44.977Z,1020.23
2017-12-04T09:29:44.958Z,1020.21
2017-12-04T09:30:44.934Z,1020.20
2017-12-04T09:31:44.917Z,1020.25
2017-12-04T09:32:44.895Z,1020.24
2017-12-04T09:33:44.875Z,1020.23
2017-12-04T09:34:44.854Z,1020.19
2017-12-04T09:35:44.833Z,1020.27
2017-12-04T09:36:44.815Z,1020.30
2017-12-04T09:37:44.799Z,1020.28
2017-12-04T09:38:44.776Z,1020.30
2017-12-04T09:39:44.754Z,1020.29
2017-12-04T09:40:44.734Z,1020.32
2017-12-04T09:41:44.714Z,1020.29
2017-12-04T09:42:44.694Z,1020.35
2017-12-04T09:43:44.675Z,1020.38
2017-12-04T09:44:44.655Z,1020.35
2017-12-04T09:45:44.634Z,1020.40
2017-12-04T09:46:44.614Z,1020.36
2017-12-04T09:47:44.605Z,1020.40
2017-12-04T09:48:44.579Z,1020.39
2017-12-04T09:49:44.562Z,1020.41
2017-12-04T09:50:44.540Z,1020.43
2017-12-04T09:51:44.518Z,1020.47
2017-12-04T09:52:44.495Z,1020.46
2017-12-04T09:53:44.482Z,1020.43
2017-12-04T09:54:44.474Z,1020.47
2017-12-04T09:55:44.444Z,1020.45
2017-12-04T09:56:44.418Z,1020.48
2017-12-04T09:57:44.405Z,1020.48
2017-12-04T09:58:44.383Z,1020.47
2017-12-04T09:59:44.367Z,1020.46
2017-12-04T10:00:44.347Z,1020.47
2017-12-04T10:01:44.322Z,1020.47
2017-12-04T10:02:44.305Z,1020.48
2017-12-04T10:03:44.283Z,1020.43
2017-12-04T10:04:44.266Z,1020.48
2017-12-04T10:05:44.255Z,1020.54
2017-12-04T10:06:44.225Z,1020.54
2017-12-04T10:07:44.202Z,1020.52
2017-12-04T10:08:44.196Z,1020.54
2017-12-04T10:09:44.164Z,1020.53
2017-12-04T10:10:44.153Z,1020.55
2017-12-04T10:11:44.126Z,1020.55
2017-12-04T10:12:44.102Z,1020.53
2017-12-04T10:13:44.085Z,1020.54
2017-12-04T10:14:44.064Z,1020.53
2017-12-04T10:15:44.045Z,1020.55
2017-12-04T10:16:44.027Z,1020.53
2017-12-04T10:17:44.011Z,1020.59
2017-12-04T10:18:43.983Z,1020.55
2017-12-04T10:19:43.965Z,1020.54
2017-12-04T10:20:43.947Z,1020.56
2017-12-04T10:21:43.931Z,1020.59
2017-12-04T10:22:43.912Z,1020.55
2017-12-04T10:23:43.890Z,1020.54
2017-12-04T10:24:43.875Z,1020.53
2017-12-04T10:25:43.854Z,1020.52
2017-12-04T10:26:43.825Z,1020.54
2017-12-04T10:27:43.811Z,1020.55
2017-12-04T10:28:43.794Z,1020.54
2017-12-04T10:29:43.784Z,1020.51
2017-12-04T10:30:43.754Z,1020.51
2017-12-04T10:31:43.739Z,1020.51
2017-12-04T10:32:43.710Z,1020.58
2017-12-04T10:33:43.712Z,1020.53
2017-12-04T10:34:43.674Z,1020.53
2017-12-04T10:35:43.652Z,1020.51
2017-12-04T10:36:43.632Z,1020.55
2017-12-04T10:37:43.614Z,1020.51
2017-12-04T10:38:43.593Z,1020.60
2017-12-04T10:39:43.573Z,1020.52
2017-12-04T10:40:43.555Z,1020.50
2017-12-04T10:41:43.544Z,1020.49
2017-12-04T10:42:43.515Z,1020.55
2017-12-04T10:43:43.512Z,1020.53
2017-12-04T10:44:43.477Z,1020.52
2017-12-04T10:45:43.465Z,1020.58
2017-12-04T10:46:43.437Z,1020.55
2017-12-04T10:47:43.421Z,1020.61
2017-12-04T10:48:43.437Z,1020.62
2017-12-04T10:49:43.382Z,1020.61
2017-12-04T10:50:43.360Z,1020.64
2017-12-04T10:51:43.342Z,1020.67
2017-12-04T10:52:43.320Z,1020.68
2017-12-04T10:53:43.307Z,1020.72
2017-12-04T10:54:43.284Z,1020.72
2017-12-04T10:55:43.265Z,1020.71
2017-12-04T10:56:43.245Z,1020.76
2017-12-04T10:57:43.224Z,1020.77
2017-12-04T10:58:43.205Z,1020.79
2017-12-04T10:59:43.187Z,1020.79
2017-12-04T11:00:43.171Z,1020.80
2017-12-04T11:01:43.155Z,1020.86
2017-12-04T11:02:43.133Z,1020.84
2017-12-04T11:03:43.111Z,1020.89
2017-12-04T11:04:43.092Z,1020.82
2017-12-04T11:05:43.073Z,1020.88
2017-12-04T11:06:43.054Z,1020.85
2017-12-04T11:07:43.035Z,1020.86
2017-12-04T11:08:43.017Z,1020.85
2017-12-04T11:09:42.995Z,1020.87
2017-12-04T11:10:42.970Z,1020.88
2017-12-04T11:11:42.953Z,1020.81
2017-12-04T11:12:42.931Z,1020.77
2017-12-04T11:13:42.913Z,1020.67
2017-12-04T11:14:42.901Z,1020.61
2017-12-04T11:15:42.873Z,1020.60
2017-12-04T11:16:42.853Z,1020.60
2017-12-04T11:17:42.834Z,1020.61
2017-12-04T11:18:42.822Z,1020.64
2017-12-04T11:19:42.797Z,1020.68
2017-12-04T11:20:42.774Z,1020.65
2017-12-04T11:21:42.760Z,1020.64
2017-12-04T11:22:42.737Z,1020.68
2017-12-04T11:23:42.767Z,1020.67
2017-12-04T11:24:42.700Z,1020.71
2017-12-04T11:25:42.681Z,1020.69
2017-12-04T11:26:42.661Z,1020.68
2017-12-04T11:27:42.646Z,1020.70
2017-12-04T11:28:42.633Z,1020.71
2017-12-04T11:29:42.621Z,1020.68
2017-12-04T11:30:42.585Z,1020.67
2017-12-04T11:31:42.563Z,1020.68
2017-12-04T11:32:42.556Z,1020.66
2017-12-04T11:33:42.525Z,1020.71
2017-12-04T11:34:42.506Z,1020.70
2017-12-04T11:35:42.489Z,1020.70
2017-12-04T11:36:42.468Z,1020.70
2017-12-04T11:37:42.452Z,1020.68
2017-12-04T11:38:42.430Z,1020.67
2017-12-04T11:39:42.417Z,1020.65
2017-12-04T11:40:42.403Z,1020.67
2017-12-04T11:41:42.374Z,1020.70
2017-12-04T11:42:42.356Z,1020.68
2017-12-04T11:43:42.344Z,1020.64
2017-12-04T11:44:42.314Z,1020.66
2017-12-04T11:45:42.307Z,1020.65
2017-12-04T11:46:42.277Z,1020.65
2017-12-04T11:47:42.265Z,1020.64
2017-12-04T11:48:42.239Z,1020.65
2017-12-04T11:49:42.227Z,1020.67
2017-12-04T11:50:42.199Z,1020.67
2017-12-04T11:51:42.184Z,1020.67
2017-12-04T11:52:42.165Z,1020.70
2017-12-04T11:53:42.143Z,1020.64
2017-12-04T11:54:42.123Z,1020.62
2017-12-04T11:55:42.107Z,1020.66
2017-12-04T11:56:42.088Z,1020.59
2017-12-04T11:57:42.070Z,1020.62
2017-12-04T11:58:42.054Z,1020.59
2017-12-04T11:59:42.032Z,1020.58
2017-12-04T12:00:42.011Z,1020.54
2017-12-04T12:01:41.994Z,1020.58
2017-12-04T12:02:41.973Z,1020.53
2017-12-04T12:03:42.165Z,1020.58
2017-12-04T12:04:41.940Z,1020.58
2017-12-04T12:05:41.915Z,1020.59